SCTE

El Tepual Airport

Airport
ICAO code
SCTE
IATA Code
PMC
Summary
ICAO Region
CARSAM
ICAO Territory
Location

Puerto Montt, Los Lagos

Serving
Puerto Montt
Elevation
294 ft
Coordinates
41° 26' 20" S , 73° 5' 38" W
KCC
Cfb
Metar
Observation
SCTE 131400Z 35017KT 9999 OVC023 11/10 Q1003 NOSIG
Station
Puerto Montt
Date/Time
2022-08-13 14:00:00
Wind direction
350°
Wind speed
17 kts
Lowest cloud amount
overcast
Temperature
11°C
Dew point
10°C
Humidity
93%
QNH
1003 hPa
Weather condition
n/a

Airport serving the tourist area of Puerto Montt, Chile. The airport is approximately 10 km west north west of the city.

Climatology

Temperate oceanic climate (Köppen climate classification Cfb)

Runways

Designator Length Width Surface Rops
17/35 2650 45 CON Yes/Yes

Airport map

Aerial View

SKYbrary Partners:

Safety knowledge contributed by: